createdAt,value
2023-05-07T00:00:48.172Z,13.81
2023-05-07T00:03:23.682Z,13.85
2023-05-07T00:05:53.932Z,13.79
2023-05-07T00:08:23.902Z,14.11
2023-05-07T00:10:52.577Z,13.68
2023-05-07T00:13:21.215Z,13.73
2023-05-07T00:15:49.990Z,13.66
2023-05-07T00:18:22.106Z,13.67
2023-05-07T00:20:50.889Z,13.59
2023-05-07T00:23:19.269Z,13.60
2023-05-07T00:25:49.309Z,13.86
2023-05-07T00:28:17.721Z,13.54
2023-05-07T00:30:46.649Z,13.34
2023-05-07T00:33:14.968Z,13.43
2023-05-07T00:35:44.463Z,13.51
2023-05-07T00:38:12.881Z,13.25
2023-05-07T00:40:41.537Z,13.12
2023-05-07T00:43:11.590Z,13.39
2023-05-07T00:45:41.032Z,13.29
2023-05-07T00:48:09.507Z,13.12
2023-05-07T00:50:38.433Z,13.21
2023-05-07T00:53:06.859Z,13.08
2023-05-07T00:55:37.192Z,13.11
2023-05-07T00:58:05.710Z,13.04
2023-05-07T01:00:37.241Z,13.40
2023-05-07T01:03:05.736Z,13.06
2023-05-07T01:05:34.946Z,13.18
2023-05-07T01:08:04.284Z,13.13
2023-05-07T01:10:32.935Z,13.09
2023-05-07T01:13:02.058Z,13.12
2023-05-07T01:15:30.789Z,13.14
2023-05-07T01:18:01.361Z,13.30
2023-05-07T01:20:30.458Z,13.16
2023-05-07T01:23:00.187Z,13.31
2023-05-07T01:25:28.821Z,13.00
2023-05-07T01:27:57.197Z,12.86
2023-05-07T01:30:26.005Z,12.81
2023-05-07T01:32:58.901Z,13.03
2023-05-07T01:35:31.477Z,12.99
2023-05-07T01:38:01.355Z,12.93
2023-05-07T01:40:30.167Z,12.66
2023-05-07T01:42:58.851Z,12.65
2023-05-07T01:45:28.041Z,12.81
2023-05-07T01:47:56.966Z,12.76
2023-05-07T01:50:25.882Z,12.72
2023-05-07T01:52:54.759Z,12.74
2023-05-07T01:55:24.690Z,12.96
2023-05-07T01:57:53.017Z,12.64
2023-05-07T02:00:22.566Z,12.79
2023-05-07T02:02:51.080Z,12.58
2023-05-07T02:05:20.959Z,12.82
2023-05-07T02:07:49.303Z,12.51
2023-05-07T02:10:17.836Z,12.58
2023-05-07T02:12:47.766Z,12.89
2023-05-07T02:15:16.490Z,12.53
2023-05-07T02:18:04.720Z,13.20
2023-05-07T02:20:33.351Z,12.50
2023-05-07T02:23:01.837Z,12.60
2023-05-07T02:25:31.293Z,12.56
2023-05-07T02:28:01.530Z,12.83
2023-05-07T02:30:30.637Z,12.46
2023-05-07T02:32:59.024Z,12.47
2023-05-07T02:35:27.836Z,12.46
2023-05-07T02:37:56.280Z,12.22
2023-05-07T02:40:25.913Z,12.29
2023-05-07T02:42:54.196Z,12.15
2023-05-07T02:45:24.477Z,12.47
2023-05-07T02:47:52.786Z,12.00
2023-05-07T02:50:21.408Z,12.02
2023-05-07T02:52:50.166Z,11.71
2023-05-07T02:55:18.842Z,11.72
2023-05-07T02:57:47.198Z,11.67
2023-05-07T03:00:17.553Z,12.10
2023-05-07T03:02:47.605Z,12.25
2023-05-07T03:05:16.376Z,11.88
2023-05-07T03:07:46.362Z,11.75
2023-05-07T03:10:15.264Z,11.90
2023-05-07T03:12:43.650Z,11.86
2023-05-07T03:15:13.749Z,12.07
2023-05-07T03:17:42.218Z,11.92
2023-05-07T03:20:14.711Z,12.33
2023-05-07T03:22:43.654Z,12.02
2023-05-07T03:25:13.514Z,12.11
2023-05-07T03:27:43.102Z,12.21
2023-05-07T03:30:13.162Z,12.25
2023-05-07T03:32:41.911Z,12.10
2023-05-07T03:35:12.347Z,12.11
2023-05-07T03:37:40.655Z,11.75
2023-05-07T03:40:12.244Z,11.96
2023-05-07T03:42:40.796Z,11.81
2023-05-07T03:45:10.989Z,12.10
2023-05-07T03:47:39.463Z,11.82
2023-05-07T03:50:08.888Z,11.90
2023-05-07T03:52:38.762Z,12.16
2023-05-07T03:55:08.323Z,11.81
2023-05-07T03:57:36.437Z,11.55
2023-05-07T04:00:06.950Z,11.69
2023-05-07T04:02:35.559Z,11.76
2023-05-07T04:05:04.667Z,11.89
2023-05-07T04:07:33.233Z,11.58
2023-05-07T04:10:03.392Z,11.73
2023-05-07T04:12:32.152Z,11.24
2023-05-07T04:15:00.700Z,11.18
2023-05-07T04:17:29.208Z,11.20
2023-05-07T04:19:57.830Z,11.12
2023-05-07T04:22:26.096Z,11.25
2023-05-07T04:24:54.788Z,11.13
2023-05-07T04:27:24.520Z,11.51
2023-05-07T04:29:56.992Z,11.22
2023-05-07T04:32:26.079Z,10.96
2023-05-07T04:34:55.028Z,10.81
2023-05-07T04:37:23.352Z,10.90
2023-05-07T04:39:51.965Z,10.94
2023-05-07T04:42:20.862Z,11.20
2023-05-07T04:44:54.968Z,11.72
2023-05-07T04:47:23.366Z,11.44
2023-05-07T04:49:52.001Z,11.33
2023-05-07T04:52:21.611Z,11.49
2023-05-07T04:54:50.300Z,11.40
2023-05-07T04:57:19.114Z,11.46
2023-05-07T04:59:47.909Z,11.32
2023-05-07T05:02:20.152Z,11.69
2023-05-07T05:04:49.530Z,11.48
2023-05-07T05:07:17.758Z,11.42
2023-05-07T05:09:46.463Z,11.50
2023-05-07T05:12:14.714Z,11.29
2023-05-07T05:14:44.061Z,11.41
2023-05-07T05:17:12.484Z,11.38
2023-05-07T05:19:42.565Z,11.57
2023-05-07T05:22:11.112Z,11.36
2023-05-07T05:24:39.723Z,11.24
2023-05-07T05:27:07.956Z,11.34
2023-05-07T05:29:36.780Z,11.50
2023-05-07T05:32:05.238Z,11.41
2023-05-07T05:34:34.855Z,11.39
2023-05-07T05:37:04.553Z,11.58
2023-05-07T05:39:33.139Z,11.30
2023-05-07T05:42:01.509Z,11.46
2023-05-07T05:44:30.110Z,11.42
2023-05-07T05:47:00.461Z,11.56
2023-05-07T05:49:29.138Z,11.39
2023-05-07T05:51:57.784Z,11.44
2023-05-07T05:54:27.936Z,11.74
2023-05-07T05:56:56.575Z,11.45
2023-05-07T05:59:25.814Z,11.47
2023-05-07T06:01:54.189Z,11.47
2023-05-07T06:04:22.748Z,11.45
2023-05-07T06:06:51.372Z,11.60
2023-05-07T06:09:20.156Z,11.42
2023-05-07T06:11:49.967Z,11.64
2023-05-07T06:14:18.785Z,11.00
2023-05-07T06:16:47.298Z,10.94
2023-05-07T06:19:16.255Z,10.87
2023-05-07T06:21:44.576Z,10.75
2023-05-07T06:24:13.197Z,10.87
2023-05-07T06:26:41.581Z,10.68
2023-05-07T06:29:11.638Z,10.92
2023-05-07T06:31:40.422Z,10.70
2023-05-07T06:34:09.570Z,10.95
2023-05-07T06:36:37.846Z,10.68
2023-05-07T06:39:06.451Z,10.70
2023-05-07T06:41:35.550Z,10.69
2023-05-07T06:44:04.099Z,10.83
2023-05-07T06:46:33.766Z,11.15
2023-05-07T06:49:02.470Z,10.63
2023-05-07T06:51:31.315Z,10.67
2023-05-07T06:53:59.908Z,10.71
2023-05-07T06:56:31.311Z,11.18
2023-05-07T06:58:59.915Z,10.91
2023-05-07T07:01:28.578Z,10.82
2023-05-07T07:03:58.648Z,11.15
2023-05-07T07:06:27.141Z,10.90
2023-05-07T07:08:55.917Z,11.18
2023-05-07T07:11:24.133Z,11.19
2023-05-07T07:13:52.886Z,11.04
2023-05-07T07:16:26.479Z,11.63
2023-05-07T07:18:55.336Z,11.33
2023-05-07T07:21:25.394Z,11.86
2023-05-07T07:23:54.125Z,11.30
2023-05-07T07:26:22.892Z,11.06
2023-05-07T07:28:51.604Z,11.18
2023-05-07T07:31:20.035Z,11.43
2023-05-07T07:33:49.372Z,11.73
2023-05-07T07:36:18.713Z,12.19
2023-05-07T07:38:48.956Z,12.47
2023-05-07T07:41:17.469Z,12.25
2023-05-07T07:43:49.154Z,12.31
2023-05-07T07:46:18.262Z,12.56
2023-05-07T07:48:47.326Z,12.69
2023-05-07T07:51:15.985Z,12.74
2023-05-07T07:53:44.634Z,12.51
2023-05-07T07:56:14.846Z,12.97
2023-05-07T07:58:43.379Z,12.67
2023-05-07T08:01:13.458Z,12.74
2023-05-07T08:03:42.257Z,12.90
2023-05-07T08:06:10.750Z,12.63
2023-05-07T08:08:39.755Z,12.53
2023-05-07T08:11:08.058Z,12.24
2023-05-07T08:13:38.261Z,12.60
2023-05-07T08:16:06.845Z,12.56
2023-05-07T08:18:35.783Z,12.90
2023-05-07T08:21:04.391Z,12.91
2023-05-07T08:23:33.062Z,12.80
2023-05-07T08:26:01.694Z,12.89
2023-05-07T08:28:30.514Z,13.14
2023-05-07T08:31:01.644Z,13.45
2023-05-07T08:33:30.537Z,13.58
2023-05-07T08:35:59.342Z,14.05
2023-05-07T08:38:28.311Z,14.22
2023-05-07T08:40:56.682Z,13.95
2023-05-07T08:43:29.254Z,14.27
2023-05-07T08:45:59.394Z,13.90
2023-05-07T08:48:28.152Z,13.85
2023-05-07T08:50:56.818Z,13.55
2023-05-07T08:53:25.333Z,13.48
2023-05-07T08:55:54.001Z,13.59
2023-05-07T08:58:22.505Z,13.59
2023-05-07T09:00:50.838Z,13.58
2023-05-07T09:03:21.028Z,13.54
2023-05-07T09:05:49.444Z,13.03
2023-05-07T09:08:18.391Z,13.08
2023-05-07T09:10:47.112Z,13.02
2023-05-07T09:13:16.137Z,12.65
2023-05-07T09:15:46.085Z,12.59
2023-05-07T09:18:16.639Z,12.43
2023-05-07T09:20:50.477Z,12.47
2023-05-07T09:23:19.715Z,12.47
2023-05-07T09:25:48.885Z,12.00
2023-05-07T09:28:17.662Z,12.22
2023-05-07T09:30:45.990Z,12.27
2023-05-07T09:33:14.619Z,12.52
2023-05-07T09:35:43.322Z,12.83
2023-05-07T09:38:13.229Z,13.45
2023-05-07T09:40:42.047Z,13.38
2023-05-07T09:43:15.819Z,13.87
2023-05-07T09:45:44.334Z,13.00
2023-05-07T09:48:13.448Z,12.66
2023-05-07T09:50:50.741Z,12.88
2023-05-07T09:53:21.034Z,12.91
2023-05-07T09:55:49.662Z,12.73
2023-05-07T09:58:20.456Z,12.53
2023-05-07T10:00:49.105Z,11.78
2023-05-07T10:03:18.465Z,11.73
2023-05-07T10:05:48.617Z,11.68
2023-05-07T10:10:51.799Z,12.64
2023-05-07T10:13:21.636Z,12.40
2023-05-07T10:15:50.520Z,11.85
2023-05-07T10:18:19.294Z,11.65
2023-05-07T10:20:48.417Z,11.78
2023-05-07T10:23:22.090Z,11.96
2023-05-07T10:25:55.434Z,11.77
2023-05-07T10:28:29.406Z,11.78
2023-05-07T10:31:10.554Z,11.45
2023-05-07T10:33:40.355Z,10.75
2023-05-07T10:36:09.359Z,10.69
2023-05-07T10:38:37.923Z,10.65
2023-05-07T10:41:07.702Z,11.61
2023-05-07T10:43:42.396Z,12.19
2023-05-07T10:46:18.668Z,12.29
2023-05-07T10:49:09.850Z,12.40
2023-05-07T10:51:39.844Z,12.14
2023-05-07T10:54:24.013Z,12.64
2023-05-07T10:56:54.034Z,12.31
2023-05-07T10:59:35.201Z,12.74
2023-05-07T11:02:05.623Z,12.31
2023-05-07T11:04:36.335Z,12.09
2023-05-07T11:07:32.239Z,12.01
2023-05-07T11:10:09.023Z,11.78
2023-05-07T11:13:06.320Z,12.05
2023-05-07T11:15:44.553Z,11.59
2023-05-07T11:18:17.415Z,11.32
2023-05-07T11:20:57.111Z,11.20
2023-05-07T11:24:11.505Z,11.62
2023-05-07T11:26:48.213Z,11.43
2023-05-07T11:29:21.893Z,11.77
2023-05-07T11:31:52.516Z,11.82
2023-05-07T11:34:25.004Z,12.11
2023-05-07T11:36:54.218Z,11.72
2023-05-07T11:39:29.866Z,11.99
2023-05-07T11:42:00.915Z,11.48
2023-05-07T11:44:44.562Z,12.25
2023-05-07T11:47:13.397Z,11.66
2023-05-07T11:49:41.794Z,11.21
2023-05-07T11:52:10.862Z,11.41
2023-05-07T11:54:39.455Z,11.21
2023-05-07T11:57:08.543Z,11.23
2023-05-07T11:59:42.496Z,11.72
2023-05-07T12:02:12.654Z,11.59
2023-05-07T12:04:41.329Z,11.05
2023-05-07T12:07:15.166Z,11.15
2023-05-07T12:09:43.980Z,11.01
2023-05-07T12:12:12.677Z,11.00
2023-05-07T12:14:41.606Z,11.27
2023-05-07T12:17:10.904Z,11.25
2023-05-07T12:19:42.027Z,11.19
2023-05-07T12:22:11.418Z,10.83
2023-05-07T12:24:47.541Z,11.31
2023-05-07T12:27:16.945Z,10.86
2023-05-07T12:29:47.383Z,11.40
2023-05-07T12:32:17.471Z,11.39
2023-05-07T12:34:47.760Z,11.20
2023-05-07T12:37:16.490Z,10.45
2023-05-07T12:39:50.202Z,10.69
2023-05-07T12:42:19.551Z,10.78
2023-05-07T12:44:48.657Z,10.60
2023-05-07T12:47:17.664Z,10.82
2023-05-07T12:49:48.268Z,10.84
2023-05-07T12:52:16.879Z,10.62
2023-05-07T12:54:46.632Z,10.89
2023-05-07T12:57:15.292Z,10.97
2023-05-07T12:59:43.899Z,11.44
2023-05-07T13:02:12.674Z,11.65
2023-05-07T13:04:40.934Z,11.91
2023-05-07T13:07:11.090Z,10.94
2023-05-07T13:09:39.463Z,11.13
2023-05-07T13:12:08.282Z,11.46
2023-05-07T13:14:36.508Z,11.72
2023-05-07T13:17:05.026Z,11.74
2023-05-07T13:19:33.295Z,11.69
2023-05-07T13:22:01.758Z,11.55
2023-05-07T13:24:31.482Z,11.62
2023-05-07T13:26:59.972Z,11.11
2023-05-07T13:29:31.115Z,11.13
2023-05-07T13:31:59.821Z,11.22
2023-05-07T13:34:28.085Z,11.61
2023-05-07T13:36:56.654Z,11.10
2023-05-07T13:39:25.029Z,10.44
2023-05-07T13:41:54.893Z,10.23
2023-05-07T13:44:23.093Z,9.77
2023-05-07T13:46:52.450Z,9.71
2023-05-07T13:49:20.716Z,9.87
2023-05-07T13:51:49.457Z,9.43
2023-05-07T13:54:18.013Z,9.86
2023-05-07T13:56:46.618Z,9.74
2023-05-07T13:59:16.629Z,10.29
2023-05-07T14:01:48.976Z,8.84
2023-05-07T14:04:17.671Z,9.61
2023-05-07T14:06:46.452Z,9.35
2023-05-07T14:09:14.687Z,9.54
2023-05-07T14:11:43.616Z,9.74
2023-05-07T14:14:12.905Z,9.61
2023-05-07T14:16:42.720Z,9.83
2023-05-07T14:19:11.166Z,9.87
2023-05-07T14:21:39.864Z,9.55
2023-05-07T14:24:09.101Z,9.37
2023-05-07T14:26:37.782Z,9.63
2023-05-07T14:29:06.173Z,9.63
2023-05-07T14:31:35.129Z,9.90
2023-05-07T14:34:05.419Z,10.28
2023-05-07T14:36:34.032Z,9.58
2023-05-07T14:39:02.441Z,9.83
2023-05-07T14:41:31.068Z,10.02
2023-05-07T14:44:00.044Z,10.42
2023-05-07T14:46:28.739Z,10.57
2023-05-07T14:48:57.092Z,9.80
2023-05-07T14:51:29.208Z,9.79
2023-05-07T14:53:57.772Z,9.41
2023-05-07T14:56:26.747Z,9.33
2023-05-07T14:58:55.129Z,9.35
2023-05-07T15:01:23.688Z,9.13
2023-05-07T15:03:52.147Z,9.03
2023-05-07T15:06:20.730Z,9.56
2023-05-07T15:08:50.717Z,9.61
2023-05-07T15:11:19.130Z,9.44
2023-05-07T15:13:47.507Z,10.04
2023-05-07T15:16:16.183Z,9.98
2023-05-07T15:18:44.979Z,9.36
2023-05-07T15:21:13.713Z,8.75
2023-05-07T15:23:42.429Z,8.95
2023-05-07T15:26:12.746Z,9.67
2023-05-07T15:28:41.438Z,9.49
2023-05-07T15:31:10.282Z,8.03
2023-05-07T15:33:38.588Z,8.79
2023-05-07T15:36:07.911Z,9.08
2023-05-07T15:38:36.388Z,8.58
2023-05-07T15:41:05.340Z,9.05
2023-05-07T15:43:35.056Z,9.58
2023-05-07T15:46:03.578Z,9.58
2023-05-07T15:48:31.926Z,9.42
2023-05-07T15:51:01.028Z,8.99
2023-05-07T15:53:29.655Z,9.09
2023-05-07T15:55:58.172Z,9.19
2023-05-07T15:58:26.590Z,9.31
2023-05-07T16:00:56.578Z,9.10
2023-05-07T16:03:25.094Z,8.40
2023-05-07T16:05:54.164Z,8.86
2023-05-07T16:08:22.972Z,8.52
2023-05-07T16:10:52.465Z,8.48
2023-05-07T16:13:21.099Z,8.64
2023-05-07T16:15:49.783Z,8.50
2023-05-07T16:18:22.261Z,8.85
2023-05-07T16:20:51.160Z,8.49
2023-05-07T16:23:19.473Z,8.82
2023-05-07T16:25:48.974Z,8.79
2023-05-07T16:28:17.324Z,8.27
2023-05-07T16:30:45.893Z,8.71
2023-05-07T16:33:14.323Z,8.68
2023-05-07T16:35:47.650Z,9.00
2023-05-07T16:38:16.196Z,7.95
2023-05-07T16:40:44.661Z,7.34
2023-05-07T16:43:12.862Z,7.07
2023-05-07T16:45:41.562Z,7.51
2023-05-07T16:48:10.010Z,7.45
2023-05-07T16:50:38.772Z,7.85
2023-05-07T16:53:08.517Z,7.97
2023-05-07T16:55:39.032Z,7.61
2023-05-07T16:58:07.766Z,7.70
2023-05-07T17:00:48.955Z,8.06
2023-05-07T17:03:19.481Z,8.07
2023-05-07T17:05:48.006Z,7.67
2023-05-07T17:08:18.024Z,7.73
2023-05-07T17:10:46.563Z,7.81
2023-05-07T17:13:15.229Z,8.26
2023-05-07T17:15:45.200Z,8.18
2023-05-07T17:18:13.908Z,8.29
2023-05-07T17:20:42.196Z,7.98
2023-05-07T17:23:11.158Z,7.44
2023-05-07T17:25:45.563Z,8.01
2023-05-07T17:28:14.621Z,7.81
2023-05-07T17:30:43.213Z,7.92
2023-05-07T17:33:20.889Z,8.55
2023-05-07T17:35:50.226Z,7.70
2023-05-07T17:38:18.870Z,7.77
2023-05-07T17:40:48.769Z,7.88
2023-05-07T17:43:17.561Z,7.86
2023-05-07T17:45:45.959Z,7.63
2023-05-07T17:48:14.589Z,7.84
2023-05-07T17:50:46.588Z,7.97
2023-05-07T17:53:17.297Z,7.91
2023-05-07T17:55:46.510Z,7.56
2023-05-07T17:58:16.285Z,8.30
2023-05-07T18:00:44.602Z,7.98
2023-05-07T18:03:13.178Z,8.23
2023-05-07T18:05:41.880Z,7.29
2023-05-07T18:08:10.785Z,7.93
2023-05-07T18:10:39.048Z,7.91
2023-05-07T18:13:07.592Z,7.00
2023-05-07T18:15:37.504Z,7.78
2023-05-07T18:18:06.722Z,7.81
2023-05-07T18:20:34.887Z,7.63
2023-05-07T18:23:04.656Z,7.36
2023-05-07T18:25:32.989Z,7.89
2023-05-07T18:28:01.688Z,8.30
2023-05-07T18:30:29.988Z,8.64
2023-05-07T18:32:59.903Z,7.93
2023-05-07T18:35:28.296Z,7.49
2023-05-07T18:37:56.935Z,8.25
2023-05-07T18:40:25.302Z,7.46
2023-05-07T18:42:54.190Z,7.65
2023-05-07T18:45:24.798Z,7.60
2023-05-07T18:47:54.075Z,7.08
2023-05-07T18:50:24.704Z,7.41
2023-05-07T18:52:53.318Z,6.63
2023-05-07T18:55:22.607Z,6.82
2023-05-07T18:57:51.204Z,6.67
2023-05-07T19:00:19.556Z,6.82
2023-05-07T19:02:48.477Z,7.11
2023-05-07T19:05:18.484Z,7.35
2023-05-07T19:07:48.577Z,8.03
2023-05-07T19:10:17.470Z,7.47
2023-05-07T19:12:46.116Z,7.85
2023-05-07T19:15:14.454Z,7.65
2023-05-07T19:17:42.968Z,7.71
2023-05-07T19:20:12.514Z,7.48
2023-05-07T19:22:41.136Z,7.58
2023-05-07T19:25:11.729Z,8.26
2023-05-07T19:27:40.554Z,7.22
2023-05-07T19:30:10.845Z,7.54
2023-05-07T19:32:40.914Z,7.57
2023-05-07T19:35:09.781Z,7.78
2023-05-07T19:37:38.434Z,6.96
2023-05-07T19:40:08.914Z,6.48
2023-05-07T19:42:38.996Z,7.16
2023-05-07T19:45:08.488Z,7.31
2023-05-07T19:47:37.051Z,6.59
2023-05-07T19:50:05.691Z,6.95
2023-05-07T19:52:34.186Z,7.21
2023-05-07T19:55:03.329Z,7.08
2023-05-07T19:57:32.093Z,7.14
2023-05-07T20:00:01.999Z,7.35
2023-05-07T20:02:33.795Z,7.21
2023-05-07T20:05:02.307Z,7.35
2023-05-07T20:07:31.137Z,7.22
2023-05-07T20:09:59.364Z,6.74
2023-05-07T20:12:27.903Z,7.31
2023-05-07T20:14:56.287Z,7.58
2023-05-07T20:17:26.520Z,7.66
2023-05-07T20:19:55.703Z,6.77
2023-05-07T20:22:24.920Z,7.12
2023-05-07T20:24:53.325Z,7.44
2023-05-07T20:27:24.979Z,7.91
2023-05-07T20:29:53.981Z,7.25
2023-05-07T20:32:22.564Z,7.02
2023-05-07T20:34:52.263Z,6.69
2023-05-07T20:37:20.914Z,7.06
2023-05-07T20:39:49.579Z,6.64
2023-05-07T20:42:18.518Z,7.24
2023-05-07T20:44:46.785Z,7.28
2023-05-07T20:47:20.634Z,7.91
2023-05-07T20:49:53.708Z,7.76
2023-05-07T20:52:22.392Z,7.11
2023-05-07T20:54:50.897Z,6.66
2023-05-07T20:57:20.190Z,6.73
2023-05-07T20:59:51.671Z,7.05
2023-05-07T21:02:20.357Z,6.70
2023-05-07T21:04:51.453Z,6.26
2023-05-07T21:07:21.456Z,6.97
2023-05-07T21:09:49.773Z,6.89
2023-05-07T21:12:18.452Z,7.11
2023-05-07T21:14:47.205Z,7.19
2023-05-07T21:17:15.776Z,6.74
2023-05-07T21:19:44.249Z,7.46
2023-05-07T21:22:13.152Z,7.27
2023-05-07T21:24:42.820Z,7.72
2023-05-07T21:27:11.367Z,6.69
2023-05-07T21:29:39.739Z,6.77
2023-05-07T21:32:08.294Z,7.25
2023-05-07T21:34:36.518Z,6.59
2023-05-07T21:37:05.214Z,7.36
2023-05-07T21:39:33.385Z,6.65
2023-05-07T21:42:03.533Z,6.49
2023-05-07T21:44:32.802Z,6.17
2023-05-07T21:47:01.632Z,6.47
2023-05-07T21:49:29.997Z,6.70
2023-05-07T21:51:59.959Z,6.40
2023-05-07T21:54:28.241Z,6.40
2023-05-07T21:56:56.848Z,6.46
2023-05-07T21:59:26.540Z,6.82
2023-05-07T22:01:55.458Z,6.68
2023-05-07T22:04:23.908Z,6.43
2023-05-07T22:06:52.791Z,7.12
2023-05-07T22:09:21.129Z,6.87
2023-05-07T22:11:49.613Z,7.20
2023-05-07T22:14:19.041Z,6.84
2023-05-07T22:16:50.262Z,7.40
2023-05-07T22:19:18.663Z,6.82
2023-05-07T22:21:47.338Z,7.22
2023-05-07T22:24:15.869Z,7.37
2023-05-07T22:26:45.222Z,6.74
2023-05-07T22:29:13.680Z,7.16
2023-05-07T22:31:42.305Z,7.44
2023-05-07T22:34:11.915Z,7.35
2023-05-07T22:36:40.257Z,6.46
2023-05-07T22:39:10.161Z,6.60
2023-05-07T22:41:38.603Z,6.31
2023-05-07T22:44:07.012Z,6.07
2023-05-07T22:46:35.542Z,6.35
2023-05-07T22:49:04.201Z,6.95
2023-05-07T22:51:34.160Z,6.57
2023-05-07T22:54:02.459Z,6.21
2023-05-07T22:56:30.986Z,6.49
2023-05-07T22:58:59.645Z,6.06
2023-05-07T23:01:28.132Z,5.96
2023-05-07T23:03:56.387Z,6.69
2023-05-07T23:06:25.092Z,5.97
2023-05-07T23:08:55.072Z,6.63
2023-05-07T23:11:23.801Z,6.49
2023-05-07T23:13:52.006Z,6.16
2023-05-07T23:16:20.916Z,6.24
2023-05-07T23:18:49.445Z,6.61
2023-05-07T23:21:17.992Z,6.36
2023-05-07T23:23:47.782Z,5.86
2023-05-07T23:26:17.698Z,6.64
2023-05-07T23:28:46.558Z,6.56
2023-05-07T23:31:15.508Z,5.97
2023-05-07T23:33:43.861Z,6.39
2023-05-07T23:36:12.284Z,6.63
2023-05-07T23:38:40.534Z,6.11
2023-05-07T23:41:09.047Z,6.29
2023-05-07T23:43:38.580Z,6.84
2023-05-07T23:46:07.505Z,5.53
2023-05-07T23:48:35.699Z,4.89
2023-05-07T23:51:04.256Z,5.42
2023-05-07T23:53:32.660Z,5.32
2023-05-07T23:56:01.379Z,5.69
2023-05-07T23:58:29.622Z,6.28
